createdAt,value
2018-08-19T00:02:19.226Z,13.87
2018-08-19T00:05:03.293Z,18.10
2018-08-19T00:07:31.765Z,14.77
2018-08-19T00:10:00.268Z,16.13
2018-08-19T00:12:37.569Z,16.27
2018-08-19T00:15:06.730Z,13.17
2018-08-19T00:17:35.220Z,15.30
2018-08-19T00:20:04.016Z,15.57
2018-08-19T00:22:32.516Z,13.37
2018-08-19T00:25:00.979Z,17.23
2018-08-19T00:27:29.580Z,16.63
2018-08-19T00:29:58.122Z,13.20
2018-08-19T00:32:26.605Z,17.63
2018-08-19T00:34:55.097Z,17.87
2018-08-19T00:37:23.613Z,18.87
2018-08-19T00:39:53.236Z,16.57
2018-08-19T00:42:21.765Z,15.67
2018-08-19T00:44:50.234Z,15.73
2018-08-19T00:47:18.697Z,12.57
2018-08-19T00:49:51.383Z,17.13
2018-08-19T00:52:19.854Z,14.03
2018-08-19T00:54:48.308Z,16.00
2018-08-19T00:57:16.741Z,16.37
2018-08-19T00:59:45.297Z,14.40
2018-08-19T01:02:13.785Z,15.73
2018-08-19T01:04:42.224Z,17.17
2018-08-19T01:07:10.661Z,15.63
2018-08-19T01:09:39.176Z,16.10
2018-08-19T01:12:07.901Z,15.23
2018-08-19T01:14:36.368Z,12.27
2018-08-19T01:17:04.890Z,14.47
2018-08-19T01:19:33.350Z,14.37
2018-08-19T01:22:01.880Z,16.60
2018-08-19T01:24:30.336Z,14.47
2018-08-19T01:26:58.797Z,17.57
2018-08-19T01:29:35.540Z,11.30
2018-08-19T01:32:09.831Z,14.43
2018-08-19T01:34:38.748Z,15.70
2018-08-19T01:37:07.291Z,14.20
2018-08-19T01:39:37.504Z,14.90
2018-08-19T01:42:07.200Z,14.33
2018-08-19T01:44:35.708Z,18.13
2018-08-19T01:47:04.293Z,21.47
2018-08-19T01:49:32.730Z,18.17
2018-08-19T01:52:01.256Z,15.73
2018-08-19T01:54:30.896Z,22.10
2018-08-19T01:57:00.613Z,14.13
2018-08-19T01:59:33.393Z,15.07
2018-08-19T02:02:04.028Z,16.53
2018-08-19T02:04:33.988Z,13.33
2018-08-19T02:07:02.567Z,13.17
2018-08-19T02:09:31.042Z,15.47
2018-08-19T02:12:00.591Z,13.63
2018-08-19T02:14:29.120Z,15.50
2018-08-19T02:16:57.985Z,14.87
2018-08-19T02:19:26.512Z,17.03
2018-08-19T02:21:54.941Z,16.70
2018-08-19T02:24:23.459Z,15.60
2018-08-19T02:26:52.023Z,13.53
2018-08-19T02:29:34.913Z,13.53
2018-08-19T02:32:04.726Z,14.83
2018-08-19T02:34:34.554Z,13.77
2018-08-19T02:37:05.969Z,14.47
2018-08-19T02:39:37.137Z,15.60
2018-08-19T02:42:11.101Z,15.63
2018-08-19T02:44:39.560Z,14.10
2018-08-19T02:47:08.053Z,16.50
2018-08-19T02:49:36.489Z,18.40
2018-08-19T02:52:05.908Z,13.77
2018-08-19T02:54:34.345Z,13.63
2018-08-19T02:57:02.845Z,15.77
2018-08-19T02:59:31.323Z,14.47
2018-08-19T03:01:59.927Z,14.23
2018-08-19T03:04:28.380Z,12.80
2018-08-19T03:06:56.825Z,13.27
2018-08-19T03:09:25.261Z,13.90
2018-08-19T03:12:05.033Z,14.63
2018-08-19T03:14:33.584Z,14.00
2018-08-19T03:17:02.088Z,11.73
2018-08-19T03:19:30.573Z,16.80
2018-08-19T03:22:01.360Z,13.47
2018-08-19T03:24:29.864Z,18.50
2018-08-19T03:27:00.677Z,15.17
2018-08-19T03:29:29.222Z,11.63
2018-08-19T03:32:00.272Z,12.20
2018-08-19T03:34:29.690Z,12.13
2018-08-19T03:36:59.330Z,12.97
2018-08-19T03:39:27.772Z,15.13
2018-08-19T03:41:56.224Z,16.07
2018-08-19T03:44:24.673Z,12.67
2018-08-19T03:46:53.103Z,14.27
2018-08-19T03:49:23.098Z,14.93
2018-08-19T03:51:51.577Z,14.07
2018-08-19T03:54:20.092Z,12.87
2018-08-19T03:56:48.593Z,14.70
2018-08-19T03:59:17.064Z,15.07
2018-08-19T04:01:46.357Z,14.17
2018-08-19T04:04:16.650Z,16.03
2018-08-19T04:06:45.108Z,14.30
2018-08-19T04:09:13.537Z,15.70
2018-08-19T04:11:42.000Z,12.93
2018-08-19T04:14:26.556Z,16.07
2018-08-19T04:16:57.189Z,13.73
2018-08-19T04:19:26.053Z,13.77
2018-08-19T04:21:57.797Z,13.83
2018-08-19T04:24:26.799Z,19.03
2018-08-19T04:26:55.496Z,15.00
2018-08-19T04:29:26.068Z,12.93
2018-08-19T04:31:54.931Z,14.80
2018-08-19T04:34:23.392Z,11.87
2018-08-19T04:36:51.816Z,12.83
2018-08-19T04:39:20.256Z,12.77
2018-08-19T04:41:48.692Z,11.40
2018-08-19T04:44:17.270Z,14.67
2018-08-19T04:46:45.719Z,16.07
2018-08-19T04:49:15.041Z,14.80
2018-08-19T04:51:43.488Z,11.80
2018-08-19T04:54:11.926Z,16.17
2018-08-19T04:56:40.427Z,12.23
2018-08-19T04:59:08.893Z,14.93
2018-08-19T05:01:37.385Z,15.27
2018-08-19T05:04:06.102Z,13.33
2018-08-19T05:06:34.561Z,14.27
2018-08-19T05:09:03.320Z,12.67
2018-08-19T05:11:31.796Z,14.57
2018-08-19T05:14:00.756Z,13.17
2018-08-19T05:16:29.207Z,16.73
2018-08-19T05:19:02.864Z,10.70
2018-08-19T05:21:31.355Z,12.40
2018-08-19T05:24:00.032Z,15.10
2018-08-19T05:26:28.721Z,10.87
2018-08-19T05:29:10.735Z,11.57
2018-08-19T05:31:44.653Z,14.33
2018-08-19T05:34:22.250Z,10.70
2018-08-19T05:36:51.240Z,10.23
2018-08-19T05:39:19.678Z,10.30
2018-08-19T05:42:01.720Z,11.67
2018-08-19T05:44:32.729Z,9.10
2018-08-19T05:47:06.613Z,10.17
2018-08-19T05:49:37.065Z,12.57
2018-08-19T05:52:22.292Z,11.80
2018-08-19T05:54:57.976Z,10.93
2018-08-19T05:57:28.426Z,10.43
2018-08-19T05:59:56.894Z,9.20
2018-08-19T06:02:32.364Z,10.77
2018-08-19T06:05:02.144Z,10.67
2018-08-19T06:07:30.782Z,13.40
2018-08-19T06:09:59.216Z,12.17
2018-08-19T06:12:27.712Z,9.17
2018-08-19T06:14:59.465Z,8.33
2018-08-19T06:17:27.907Z,12.67
2018-08-19T06:19:56.387Z,10.97
2018-08-19T06:22:30.201Z,11.37
2018-08-19T06:24:58.712Z,9.23
2018-08-19T06:27:32.343Z,10.47
2018-08-19T06:30:00.821Z,12.37
2018-08-19T06:32:31.894Z,13.60
2018-08-19T06:35:00.689Z,13.23
2018-08-19T06:37:29.123Z,11.93
2018-08-19T06:39:57.637Z,10.93
2018-08-19T06:42:26.105Z,10.63
2018-08-19T06:44:54.587Z,12.53
2018-08-19T06:47:23.085Z,9.63
2018-08-19T06:49:54.402Z,13.17
2018-08-19T06:52:24.557Z,10.23
2018-08-19T06:54:53.277Z,11.87
2018-08-19T06:57:21.881Z,7.70
2018-08-19T06:59:50.449Z,9.67
2018-08-19T07:02:21.674Z,11.13
2018-08-19T07:04:50.181Z,11.30
2018-08-19T07:07:19.497Z,9.90
2018-08-19T07:09:48.014Z,12.77
2018-08-19T07:12:19.844Z,10.83
2018-08-19T07:14:48.845Z,11.77
2018-08-19T07:17:18.563Z,8.30
2018-08-19T07:19:47.141Z,9.33
2018-08-19T07:22:18.311Z,10.00
2018-08-19T07:24:46.840Z,9.13
2018-08-19T07:27:15.358Z,7.63
2018-08-19T07:29:43.889Z,9.67
2018-08-19T07:32:13.089Z,9.43
2018-08-19T07:34:41.636Z,7.00
2018-08-19T07:37:10.225Z,6.47
2018-08-19T07:39:45.609Z,6.90
2018-08-19T07:42:14.309Z,8.03
2018-08-19T07:44:42.833Z,6.90
2018-08-19T07:47:11.383Z,8.03
2018-08-19T07:49:39.841Z,6.83
2018-08-19T07:52:08.346Z,5.83
2018-08-19T07:54:36.805Z,4.17
2018-08-19T07:57:11.941Z,5.33
2018-08-19T07:59:40.681Z,5.33
2018-08-19T08:02:09.238Z,4.23
2018-08-19T08:04:43.228Z,5.93
2018-08-19T08:07:12.825Z,7.30
2018-08-19T08:09:42.241Z,3.63
2018-08-19T08:12:12.236Z,6.07
2018-08-19T08:14:46.185Z,6.30
2018-08-19T08:17:14.765Z,4.30
2018-08-19T08:19:48.784Z,5.27
2018-08-19T08:22:17.965Z,6.47
2018-08-19T08:24:46.489Z,4.50
2018-08-19T08:27:15.120Z,5.57
2018-08-19T08:29:43.625Z,4.47
2018-08-19T08:32:12.245Z,4.43
2018-08-19T08:34:40.861Z,3.93
2018-08-19T08:37:10.278Z,4.17
2018-08-19T08:39:38.886Z,5.67
2018-08-19T08:42:07.802Z,3.97
2018-08-19T08:44:36.392Z,4.40
2018-08-19T08:47:08.428Z,4.20
2018-08-19T08:49:42.268Z,6.80
2018-08-19T08:52:24.423Z,5.53
2018-08-19T08:54:57.549Z,4.80
2018-08-19T08:57:26.433Z,5.63
2018-08-19T08:59:55.532Z,5.17
2018-08-19T09:02:24.727Z,4.77
2018-08-19T09:04:54.580Z,5.20
2018-08-19T09:07:23.072Z,6.13
2018-08-19T09:09:51.959Z,5.90
2018-08-19T09:12:31.831Z,7.83
2018-08-19T09:15:00.508Z,5.13
2018-08-19T09:17:29.236Z,4.63
2018-08-19T09:19:58.033Z,4.40
2018-08-19T09:22:26.718Z,6.50
2018-08-19T09:24:55.453Z,4.77
2018-08-19T09:27:24.081Z,5.67
2018-08-19T09:29:52.612Z,7.43
2018-08-19T09:32:21.360Z,7.00
2018-08-19T09:34:49.864Z,5.07
2018-08-19T09:37:18.587Z,6.10
2018-08-19T09:39:47.191Z,6.93
2018-08-19T09:42:15.796Z,7.13
2018-08-19T09:44:44.566Z,4.93
2018-08-19T09:47:13.097Z,6.23
2018-08-19T09:49:41.649Z,7.53
2018-08-19T09:52:10.264Z,6.13
2018-08-19T09:54:39.154Z,5.13
2018-08-19T09:57:09.380Z,6.20
2018-08-19T09:59:37.894Z,5.73
2018-08-19T10:02:08.756Z,5.30
2018-08-19T10:04:37.321Z,6.93
2018-08-19T10:07:14.128Z,7.33
2018-08-19T10:09:43.093Z,6.03
2018-08-19T10:12:12.865Z,5.23
2018-08-19T10:14:41.353Z,6.67
2018-08-19T10:17:10.091Z,6.30
2018-08-19T10:19:41.502Z,8.53
2018-08-19T10:22:10.314Z,6.97
2018-08-19T10:24:38.898Z,6.87
2018-08-19T10:27:08.537Z,5.83
2018-08-19T10:29:37.047Z,6.67
2018-08-19T10:32:07.266Z,6.30
2018-08-19T10:34:36.888Z,6.10
2018-08-19T10:37:06.113Z,8.10
2018-08-19T10:39:34.872Z,7.67
2018-08-19T10:42:16.832Z,5.50
2018-08-19T10:44:47.002Z,5.90
2018-08-19T10:47:15.555Z,8.93
2018-08-19T10:49:50.538Z,6.67
2018-08-19T10:52:23.310Z,7.77
2018-08-19T10:54:51.818Z,6.13
2018-08-19T10:57:21.344Z,5.80
2018-08-19T10:59:51.989Z,6.67
2018-08-19T11:02:21.426Z,5.13
2018-08-19T11:04:50.816Z,6.20
2018-08-19T11:07:19.894Z,6.83
2018-08-19T11:10:03.905Z,8.23
2018-08-19T11:12:32.559Z,5.90
2018-08-19T11:15:01.350Z,6.00
2018-08-19T11:17:30.122Z,6.97
2018-08-19T11:19:58.607Z,6.70
2018-08-19T11:22:27.094Z,5.83
2018-08-19T11:24:55.685Z,6.30
2018-08-19T11:27:24.730Z,6.17
2018-08-19T11:29:53.401Z,8.83
2018-08-19T11:32:34.197Z,6.90
2018-08-19T11:35:02.733Z,6.20
2018-08-19T11:37:32.158Z,7.93
2018-08-19T11:40:00.685Z,8.67
2018-08-19T11:42:29.817Z,4.80
2018-08-19T11:44:58.356Z,7.57
2018-08-19T11:47:26.881Z,6.83
2018-08-19T11:49:55.761Z,7.47
2018-08-19T11:52:24.860Z,7.47
2018-08-19T11:54:53.416Z,6.80
2018-08-19T11:57:22.797Z,6.57
2018-08-19T11:59:51.628Z,7.10
2018-08-19T12:02:21.437Z,6.60
2018-08-19T12:04:49.932Z,9.93
2018-08-19T12:07:18.941Z,8.30
2018-08-19T12:09:53.850Z,6.00
2018-08-19T12:12:53.512Z,6.13
2018-08-19T12:15:22.061Z,6.57
2018-08-19T12:17:50.688Z,7.03
2018-08-19T12:20:38.154Z,5.83
2018-08-19T12:23:07.966Z,6.83
2018-08-19T12:25:36.476Z,6.23
2018-08-19T12:28:05.301Z,8.13
2018-08-19T12:30:33.776Z,7.90
2018-08-19T12:33:13.889Z,6.90
2018-08-19T12:35:42.362Z,6.20
2018-08-19T12:38:10.823Z,5.60
2018-08-19T12:40:43.741Z,6.07
2018-08-19T12:43:12.221Z,6.80
2018-08-19T12:45:40.662Z,7.77
2018-08-19T12:48:09.152Z,6.53
2018-08-19T12:50:37.573Z,7.10
2018-08-19T12:53:06.664Z,5.93
2018-08-19T12:55:35.155Z,7.17
2018-08-19T12:58:07.683Z,7.43
2018-08-19T13:00:36.141Z,8.67
2018-08-19T13:03:04.673Z,8.87
2018-08-19T13:05:33.177Z,9.00
2018-08-19T13:08:01.722Z,6.97
2018-08-19T13:10:35.385Z,7.83
2018-08-19T13:13:03.897Z,5.83
2018-08-19T13:15:32.377Z,8.23
2018-08-19T13:18:00.893Z,7.93
2018-08-19T13:20:29.457Z,8.13
2018-08-19T13:23:02.329Z,7.43
2018-08-19T13:25:31.125Z,7.17
2018-08-19T13:27:59.557Z,6.17
2018-08-19T13:30:28.064Z,10.33
2018-08-19T13:32:56.530Z,9.37
2018-08-19T13:35:25.009Z,9.17
2018-08-19T13:37:53.540Z,8.43
2018-08-19T13:40:22.029Z,9.40
2018-08-19T13:42:51.148Z,7.43
2018-08-19T13:45:21.180Z,9.13
2018-08-19T13:47:52.173Z,7.93
2018-08-19T13:50:20.644Z,7.20
2018-08-19T13:52:49.133Z,8.90
2018-08-19T13:55:19.569Z,11.23
2018-08-19T13:57:48.098Z,8.80
2018-08-19T14:00:21.211Z,9.40
2018-08-19T14:02:50.174Z,8.80
2018-08-19T14:05:18.666Z,8.77
2018-08-19T14:07:47.210Z,7.40
2018-08-19T14:10:16.273Z,7.67
2018-08-19T14:12:44.819Z,8.50
2018-08-19T14:15:13.532Z,9.00
2018-08-19T14:17:42.013Z,7.63
2018-08-19T14:20:11.194Z,8.93
2018-08-19T14:22:39.648Z,7.23
2018-08-19T14:25:09.900Z,9.40
2018-08-19T14:27:38.673Z,6.70
2018-08-19T14:30:08.587Z,8.97
2018-08-19T14:32:43.324Z,8.20
2018-08-19T14:35:11.812Z,8.70
2018-08-19T14:37:40.568Z,7.70
2018-08-19T14:40:14.488Z,8.80
2018-08-19T14:42:42.772Z,8.40
2018-08-19T14:45:11.276Z,6.50
2018-08-19T14:47:39.720Z,7.53
2018-08-19T14:50:11.781Z,7.10
2018-08-19T14:52:40.243Z,10.87
2018-08-19T14:55:09.351Z,8.53
2018-08-19T14:57:37.956Z,6.40
2018-08-19T15:00:08.593Z,8.27
2018-08-19T15:02:37.361Z,8.07
2018-08-19T15:05:06.049Z,7.07
2018-08-19T15:07:34.592Z,9.90
2018-08-19T15:10:03.180Z,7.57
2018-08-19T15:12:31.583Z,9.90
2018-08-19T15:15:00.894Z,7.67
2018-08-19T15:17:29.372Z,8.53
2018-08-19T15:19:57.937Z,8.33
2018-08-19T15:22:26.292Z,10.40
2018-08-19T15:24:54.719Z,7.37
2018-08-19T15:27:23.244Z,8.97
2018-08-19T15:29:52.896Z,9.33
2018-08-19T15:32:22.545Z,9.23
2018-08-19T15:34:50.827Z,9.83
2018-08-19T15:37:19.282Z,8.20
2018-08-19T15:39:47.761Z,10.03
2018-08-19T15:42:16.743Z,8.83
2018-08-19T15:44:45.404Z,8.80
2018-08-19T15:47:13.996Z,10.10
2018-08-19T15:49:42.384Z,8.10
2018-08-19T15:52:10.816Z,7.73
2018-08-19T15:54:42.545Z,6.53
2018-08-19T15:57:11.015Z,7.73
2018-08-19T15:59:39.518Z,7.43
2018-08-19T16:02:07.982Z,9.37
2018-08-19T16:04:36.412Z,8.17
2018-08-19T16:07:04.872Z,8.23
2018-08-19T16:09:33.348Z,6.83
2018-08-19T16:12:01.806Z,7.30
2018-08-19T16:14:32.264Z,8.27
2018-08-19T16:17:02.104Z,7.70
2018-08-19T16:19:30.567Z,9.70
2018-08-19T16:21:59.880Z,8.73
2018-08-19T16:24:28.545Z,7.60
2018-08-19T16:26:57.050Z,11.23
2018-08-19T16:29:25.480Z,8.67
2018-08-19T16:31:54.172Z,8.47
2018-08-19T16:34:22.528Z,7.83
2018-08-19T16:36:50.986Z,6.53
2018-08-19T16:39:19.516Z,6.63
2018-08-19T16:41:47.984Z,7.60
2018-08-19T16:44:16.440Z,7.43
2018-08-19T16:46:44.980Z,7.60
2018-08-19T16:49:13.440Z,7.20
2018-08-19T16:51:41.970Z,8.53
2018-08-19T16:54:10.477Z,8.33
2018-08-19T16:56:38.941Z,7.00
2018-08-19T16:59:07.377Z,7.50
2018-08-19T17:01:35.906Z,9.30
2018-08-19T17:04:04.381Z,7.47
2018-08-19T17:06:32.876Z,12.47
2018-08-19T17:09:01.297Z,9.77
2018-08-19T17:11:29.781Z,7.10
2018-08-19T17:13:58.250Z,8.03
2018-08-19T17:16:26.730Z,7.50
2018-08-19T17:18:55.205Z,7.60
2018-08-19T17:21:23.690Z,7.07
2018-08-19T17:23:52.564Z,6.83
2018-08-19T17:26:22.445Z,5.57
2018-08-19T17:28:51.268Z,6.87
2018-08-19T17:31:20.171Z,9.17
2018-08-19T17:33:48.673Z,6.80
2018-08-19T17:36:25.384Z,7.33
2018-08-19T17:38:53.873Z,7.00
2018-08-19T17:41:22.285Z,5.37
2018-08-19T17:43:50.834Z,8.90
2018-08-19T17:46:20.581Z,7.50
2018-08-19T17:48:49.250Z,8.13
2018-08-19T17:51:30.686Z,7.00
2018-08-19T17:53:59.153Z,9.10
2018-08-19T17:56:27.656Z,5.80
2018-08-19T17:58:56.113Z,7.10
2018-08-19T18:01:25.289Z,6.47
2018-08-19T18:03:53.875Z,8.57
2018-08-19T18:06:22.324Z,7.70
2018-08-19T18:08:52.297Z,7.30
2018-08-19T18:11:21.133Z,8.33
2018-08-19T18:13:49.950Z,6.90
2018-08-19T18:16:18.462Z,10.07
2018-08-19T18:18:47.609Z,7.60
2018-08-19T18:21:16.096Z,7.33
2018-08-19T18:23:48.357Z,7.40
2018-08-19T18:26:16.861Z,6.80
2018-08-19T18:28:46.998Z,8.53
2018-08-19T18:31:19.523Z,7.57
2018-08-19T18:34:00.083Z,6.87
2018-08-19T18:36:30.508Z,8.30
2018-08-19T18:38:59.461Z,7.50
2018-08-19T18:41:36.476Z,9.87
2018-08-19T18:44:06.561Z,6.57
2018-08-19T18:46:35.542Z,6.40
2018-08-19T18:49:12.468Z,7.07
2018-08-19T18:51:42.742Z,8.20
2018-08-19T18:54:20.821Z,9.60
2018-08-19T18:56:49.461Z,9.83
2018-08-19T18:59:17.981Z,7.93
2018-08-19T19:01:46.542Z,10.03
2018-08-19T19:04:15.070Z,9.07
2018-08-19T19:06:43.583Z,7.20
2018-08-19T19:09:12.097Z,7.27
2018-08-19T19:11:40.623Z,7.87
2018-08-19T19:14:16.317Z,9.73
2018-08-19T19:16:53.625Z,7.77
2018-08-19T19:19:22.327Z,9.33
2018-08-19T19:21:58.956Z,7.07
2018-08-19T19:24:35.825Z,8.40
2018-08-19T19:27:04.404Z,10.67
2018-08-19T19:29:32.908Z,8.87
2018-08-19T19:32:11.389Z,7.40
2018-08-19T19:34:39.877Z,10.90
2018-08-19T19:37:08.563Z,8.33
2018-08-19T19:39:37.907Z,6.83
2018-08-19T19:42:17.042Z,9.73
2018-08-19T19:44:45.866Z,6.57
2018-08-19T19:47:14.428Z,7.67
2018-08-19T19:49:48.364Z,8.07
2018-08-19T19:52:16.872Z,7.57
2018-08-19T19:54:45.459Z,9.60
2018-08-19T19:57:14.083Z,8.80
2018-08-19T19:59:42.674Z,8.20
2018-08-19T20:02:16.492Z,7.43
2018-08-19T20:04:45.292Z,8.73
2018-08-19T20:07:14.172Z,8.17
2018-08-19T20:09:42.840Z,9.13
2018-08-19T20:12:16.930Z,9.87
2018-08-19T20:14:48.977Z,11.23
2018-08-19T20:17:18.874Z,8.90
2018-08-19T20:19:47.352Z,7.87
2018-08-19T20:22:17.971Z,7.63
2018-08-19T20:24:46.921Z,8.53
2018-08-19T20:27:15.704Z,8.97
2018-08-19T20:29:44.337Z,9.00
2018-08-19T20:32:12.845Z,9.70
2018-08-19T20:34:41.352Z,10.70
2018-08-19T20:37:10.965Z,8.33
2018-08-19T20:39:39.522Z,9.50
2018-08-19T20:42:08.142Z,8.10
2018-08-19T20:44:38.173Z,12.80
2018-08-19T20:47:07.725Z,8.90
2018-08-19T20:49:36.225Z,10.87
2018-08-19T20:52:04.846Z,11.23
2018-08-19T20:54:33.308Z,9.80
2018-08-19T20:57:01.870Z,10.63
2018-08-19T20:59:37.749Z,10.47
2018-08-19T21:02:07.651Z,12.67
2018-08-19T21:04:36.165Z,9.10
2018-08-19T21:07:05.524Z,8.77
2018-08-19T21:09:35.461Z,9.77
2018-08-19T21:12:04.093Z,14.37
2018-08-19T21:14:32.584Z,11.23
2018-08-19T21:17:03.021Z,10.80
2018-08-19T21:19:31.507Z,8.53
2018-08-19T21:21:59.973Z,10.47
2018-08-19T21:24:28.435Z,12.20
2018-08-19T21:27:01.952Z,10.50
2018-08-19T21:29:31.271Z,11.33
2018-08-19T21:31:59.740Z,11.73
2018-08-19T21:34:28.541Z,11.43
2018-08-19T21:36:57.416Z,10.60
2018-08-19T21:39:25.872Z,10.43
2018-08-19T21:41:56.048Z,9.73
2018-08-19T21:44:24.589Z,13.13
2018-08-19T21:46:53.111Z,10.47
2018-08-19T21:49:21.583Z,11.10
2018-08-19T21:51:50.124Z,9.87
2018-08-19T21:54:18.620Z,11.37
2018-08-19T21:56:47.092Z,11.57
2018-08-19T21:59:20.852Z,11.67
2018-08-19T22:01:56.459Z,10.47
2018-08-19T22:04:25.079Z,12.03
2018-08-19T22:06:53.574Z,9.73
2018-08-19T22:09:34.304Z,9.77
2018-08-19T22:12:03.396Z,10.47
2018-08-19T22:14:32.599Z,10.67
2018-08-19T22:17:08.225Z,10.43
2018-08-19T22:19:37.131Z,11.33
2018-08-19T22:22:05.729Z,10.13
2018-08-19T22:24:34.355Z,10.80
2018-08-19T22:27:08.251Z,12.63
2018-08-19T22:29:36.789Z,14.50
2018-08-19T22:32:05.968Z,12.87
2018-08-19T22:34:34.456Z,12.57
2018-08-19T22:37:03.071Z,11.93
2018-08-19T22:39:31.658Z,16.20
2018-08-19T22:42:00.550Z,12.73
2018-08-19T22:44:35.526Z,12.83
2018-08-19T22:47:04.025Z,15.67
2018-08-19T22:49:32.554Z,13.50
2018-08-19T22:52:22.081Z,15.20
2018-08-19T22:54:54.052Z,13.43
2018-08-19T22:57:22.561Z,13.70
2018-08-19T22:59:51.128Z,14.77
2018-08-19T23:02:19.764Z,11.20
2018-08-19T23:04:48.311Z,14.27
2018-08-19T23:07:16.838Z,13.47
2018-08-19T23:09:45.344Z,12.40
2018-08-19T23:12:13.906Z,12.40
2018-08-19T23:14:53.779Z,12.60
2018-08-19T23:17:22.269Z,12.17
2018-08-19T23:19:51.622Z,11.40
2018-08-19T23:22:20.179Z,13.60
2018-08-19T23:24:48.680Z,13.30
2018-08-19T23:27:17.231Z,13.63
2018-08-19T23:29:45.717Z,13.73
2018-08-19T23:32:14.224Z,11.93
2018-08-19T23:34:42.696Z,13.43
2018-08-19T23:37:11.205Z,13.30
2018-08-19T23:39:39.676Z,13.10
2018-08-19T23:42:08.268Z,13.97
2018-08-19T23:44:36.775Z,13.53
2018-08-19T23:47:05.345Z,13.40
2018-08-19T23:49:33.852Z,15.83
2018-08-19T23:52:02.400Z,14.40
2018-08-19T23:54:30.899Z,14.37
2018-08-19T23:56:59.870Z,16.47
2018-08-19T23:59:33.573Z,14.13
